sensor_id;sensor_type;location;lat;lon;timestamp;P1;durP1;ratioP1;P2;durP2;ratioP2
66741;SDS011;53654;54.152;19.432;2023-11-19T00:00:30;21.90;;;19.80;;
66741;SDS011;53654;54.152;19.432;2023-11-19T00:03:18;22.40;;;20.20;;
66741;SDS011;53654;54.152;19.432;2023-11-19T00:05:46;21.90;;;19.80;;
66741;SDS011;53654;54.152;19.432;2023-11-19T00:08:15;21.70;;;19.50;;
66741;SDS011;53654;54.152;19.432;2023-11-19T00:10:43;22.10;;;20.00;;
66741;SDS011;53654;54.152;19.432;2023-11-19T00:13:11;22.20;;;20.00;;
66741;SDS011;53654;54.152;19.432;2023-11-19T00:15:40;22.30;;;20.20;;
66741;SDS011;53654;54.152;19.432;2023-11-19T00:18:08;22.20;;;20.10;;
66741;SDS011;53654;54.152;19.432;2023-11-19T00:20:36;21.60;;;19.60;;
66741;SDS011;53654;54.152;19.432;2023-11-19T00:23:04;21.70;;;19.50;;
66741;SDS011;53654;54.152;19.432;2023-11-19T00:25:33;21.50;;;19.30;;
66741;SDS011;53654;54.152;19.432;2023-11-19T00:28:01;20.30;;;18.20;;
66741;SDS011;53654;54.152;19.432;2023-11-19T00:30:29;19.90;;;18.10;;
66741;SDS011;53654;54.152;19.432;2023-11-19T00:32:59;19.40;;;17.60;;
66741;SDS011;53654;54.152;19.432;2023-11-19T00:35:27;20.30;;;18.30;;
66741;SDS011;53654;54.152;19.432;2023-11-19T00:37:56;21.30;;;19.10;;
66741;SDS011;53654;54.152;19.432;2023-11-19T00:40:24;20.00;;;18.00;;
66741;SDS011;53654;54.152;19.432;2023-11-19T00:42:52;19.20;;;17.40;;
66741;SDS011;53654;54.152;19.432;2023-11-19T00:45:20;19.80;;;17.90;;
66741;SDS011;53654;54.152;19.432;2023-11-19T00:47:48;19.90;;;18.00;;
66741;SDS011;53654;54.152;19.432;2023-11-19T00:50:17;19.50;;;17.70;;
66741;SDS011;53654;54.152;19.432;2023-11-19T00:52:46;19.60;;;17.60;;
66741;SDS011;53654;54.152;19.432;2023-11-19T00:55:15;19.70;;;17.70;;
66741;SDS011;53654;54.152;19.432;2023-11-19T00:57:43;18.90;;;17.00;;
66741;SDS011;53654;54.152;19.432;2023-11-19T01:00:12;19.10;;;17.20;;
66741;SDS011;53654;54.152;19.432;2023-11-19T01:02:47;18.60;;;16.80;;
66741;SDS011;53654;54.152;19.432;2023-11-19T01:05:20;19.20;;;17.30;;
66741;SDS011;53654;54.152;19.432;2023-11-19T01:07:51;18.00;;;16.30;;
66741;SDS011;53654;54.152;19.432;2023-11-19T01:10:22;18.60;;;16.70;;
66741;SDS011;53654;54.152;19.432;2023-11-19T01:12:52;18.70;;;16.80;;
66741;SDS011;53654;54.152;19.432;2023-11-19T01:15:21;17.90;;;16.10;;
66741;SDS011;53654;54.152;19.432;2023-11-19T01:17:50;18.30;;;16.40;;
66741;SDS011;53654;54.152;19.432;2023-11-19T01:20:21;18.70;;;16.90;;
66741;SDS011;53654;54.152;19.432;2023-11-19T01:22:49;19.10;;;17.20;;
66741;SDS011;53654;54.152;19.432;2023-11-19T01:25:18;18.20;;;16.40;;
66741;SDS011;53654;54.152;19.432;2023-11-19T01:27:47;18.30;;;16.40;;
66741;SDS011;53654;54.152;19.432;2023-11-19T01:30:15;17.40;;;15.60;;
66741;SDS011;53654;54.152;19.432;2023-11-19T01:32:44;18.30;;;16.40;;
66741;SDS011;53654;54.152;19.432;2023-11-19T01:35:12;17.30;;;15.60;;
66741;SDS011;53654;54.152;19.432;2023-11-19T01:37:41;16.70;;;15.10;;
66741;SDS011;53654;54.152;19.432;2023-11-19T01:40:09;16.90;;;15.30;;
66741;SDS011;53654;54.152;19.432;2023-11-19T01:42:40;17.00;;;15.40;;
66741;SDS011;53654;54.152;19.432;2023-11-19T01:45:09;16.30;;;14.80;;
66741;SDS011;53654;54.152;19.432;2023-11-19T01:47:49;16.20;;;14.60;;
66741;SDS011;53654;54.152;19.432;2023-11-19T01:50:19;16.20;;;14.60;;
66741;SDS011;53654;54.152;19.432;2023-11-19T01:52:48;15.50;;;14.00;;
66741;SDS011;53654;54.152;19.432;2023-11-19T01:55:16;14.60;;;13.20;;
66741;SDS011;53654;54.152;19.432;2023-11-19T01:57:45;14.00;;;12.60;;
66741;SDS011;53654;54.152;19.432;2023-11-19T02:00:14;14.10;;;12.80;;
66741;SDS011;53654;54.152;19.432;2023-11-19T02:02:43;14.20;;;12.80;;
66741;SDS011;53654;54.152;19.432;2023-11-19T02:05:14;13.30;;;12.10;;
66741;SDS011;53654;54.152;19.432;2023-11-19T02:07:43;13.20;;;11.90;;
66741;SDS011;53654;54.152;19.432;2023-11-19T02:10:11;12.50;;;11.40;;
66741;SDS011;53654;54.152;19.432;2023-11-19T02:12:42;11.90;;;10.70;;
66741;SDS011;53654;54.152;19.432;2023-11-19T02:15:10;11.60;;;10.50;;
66741;SDS011;53654;54.152;19.432;2023-11-19T02:17:39;12.00;;;10.90;;
66741;SDS011;53654;54.152;19.432;2023-11-19T02:20:08;11.70;;;10.60;;
66741;SDS011;53654;54.152;19.432;2023-11-19T02:22:39;11.50;;;10.20;;
66741;SDS011;53654;54.152;19.432;2023-11-19T02:25:09;11.00;;;10.00;;
66741;SDS011;53654;54.152;19.432;2023-11-19T02:30:16;11.00;;;10.10;;
66741;SDS011;53654;54.152;19.432;2023-11-19T02:32:44;10.40;;;9.50;;
66741;SDS011;53654;54.152;19.432;2023-11-19T02:35:12;10.40;;;9.40;;
66741;SDS011;53654;54.152;19.432;2023-11-19T02:37:41;10.40;;;9.40;;
66741;SDS011;53654;54.152;19.432;2023-11-19T02:40:09;10.80;;;9.80;;
66741;SDS011;53654;54.152;19.432;2023-11-19T02:42:37;11.30;;;10.30;;
66741;SDS011;53654;54.152;19.432;2023-11-19T02:45:06;11.20;;;10.10;;
66741;SDS011;53654;54.152;19.432;2023-11-19T02:47:35;11.00;;;10.00;;
66741;SDS011;53654;54.152;19.432;2023-11-19T02:50:04;10.70;;;9.70;;
66741;SDS011;53654;54.152;19.432;2023-11-19T02:52:41;10.10;;;9.20;;
66741;SDS011;53654;54.152;19.432;2023-11-19T02:55:10;9.90;;;9.00;;
66741;SDS011;53654;54.152;19.432;2023-11-19T02:57:41;10.00;;;9.20;;
66741;SDS011;53654;54.152;19.432;2023-11-19T03:00:20;9.70;;;8.80;;
66741;SDS011;53654;54.152;19.432;2023-11-19T03:02:59;9.60;;;8.70;;
66741;SDS011;53654;54.152;19.432;2023-11-19T03:05:33;9.70;;;8.70;;
66741;SDS011;53654;54.152;19.432;2023-11-19T03:08:01;9.20;;;8.30;;
66741;SDS011;53654;54.152;19.432;2023-11-19T03:10:30;8.90;;;8.10;;
66741;SDS011;53654;54.152;19.432;2023-11-19T03:12:59;10.20;;;9.30;;
66741;SDS011;53654;54.152;19.432;2023-11-19T03:15:30;10.40;;;9.40;;
66741;SDS011;53654;54.152;19.432;2023-11-19T03:17:58;10.20;;;9.30;;
66741;SDS011;53654;54.152;19.432;2023-11-19T03:20:26;9.80;;;8.90;;
66741;SDS011;53654;54.152;19.432;2023-11-19T03:22:55;10.40;;;9.40;;
66741;SDS011;53654;54.152;19.432;2023-11-19T03:25:25;10.30;;;9.30;;
66741;SDS011;53654;54.152;19.432;2023-11-19T03:28:01;10.00;;;9.10;;
66741;SDS011;53654;54.152;19.432;2023-11-19T03:30:30;9.90;;;9.00;;
66741;SDS011;53654;54.152;19.432;2023-11-19T03:33:02;10.10;;;9.10;;
66741;SDS011;53654;54.152;19.432;2023-11-19T03:35:31;10.10;;;9.20;;
66741;SDS011;53654;54.152;19.432;2023-11-19T03:38:00;11.30;;;10.20;;
66741;SDS011;53654;54.152;19.432;2023-11-19T03:40:29;11.80;;;10.60;;
66741;SDS011;53654;54.152;19.432;2023-11-19T03:42:57;11.90;;;10.70;;
66741;SDS011;53654;54.152;19.432;2023-11-19T03:45:26;10.70;;;9.70;;
66741;SDS011;53654;54.152;19.432;2023-11-19T03:47:54;10.80;;;9.80;;
66741;SDS011;53654;54.152;19.432;2023-11-19T03:50:23;11.60;;;10.50;;
66741;SDS011;53654;54.152;19.432;2023-11-19T03:52:52;12.30;;;10.90;;
66741;SDS011;53654;54.152;19.432;2023-11-19T03:55:20;11.40;;;10.30;;
66741;SDS011;53654;54.152;19.432;2023-11-19T03:57:48;11.50;;;10.50;;
66741;SDS011;53654;54.152;19.432;2023-11-19T04:00:17;12.40;;;11.20;;
66741;SDS011;53654;54.152;19.432;2023-11-19T04:02:48;12.00;;;10.80;;
66741;SDS011;53654;54.152;19.432;2023-11-19T04:05:17;12.80;;;11.40;;
66741;SDS011;53654;54.152;19.432;2023-11-19T04:07:47;12.30;;;11.10;;
66741;SDS011;53654;54.152;19.432;2023-11-19T04:10:15;12.20;;;11.00;;
66741;SDS011;53654;54.152;19.432;2023-11-19T04:12:44;13.70;;;12.20;;
66741;SDS011;53654;54.152;19.432;2023-11-19T04:15:13;16.70;;;14.30;;
66741;SDS011;53654;54.152;19.432;2023-11-19T04:17:42;14.70;;;13.20;;
66741;SDS011;53654;54.152;19.432;2023-11-19T04:20:11;15.50;;;13.90;;
66741;SDS011;53654;54.152;19.432;2023-11-19T04:22:41;14.10;;;12.70;;
66741;SDS011;53654;54.152;19.432;2023-11-19T04:25:10;14.30;;;12.80;;
66741;SDS011;53654;54.152;19.432;2023-11-19T04:27:39;12.20;;;11.00;;
66741;SDS011;53654;54.152;19.432;2023-11-19T04:30:09;12.20;;;11.00;;
66741;SDS011;53654;54.152;19.432;2023-11-19T04:32:39;12.10;;;10.90;;
66741;SDS011;53654;54.152;19.432;2023-11-19T04:35:07;12.10;;;10.90;;
66741;SDS011;53654;54.152;19.432;2023-11-19T04:37:36;11.80;;;10.60;;
66741;SDS011;53654;54.152;19.432;2023-11-19T04:40:05;12.50;;;11.30;;
66741;SDS011;53654;54.152;19.432;2023-11-19T04:42:34;12.30;;;11.20;;
66741;SDS011;53654;54.152;19.432;2023-11-19T04:45:02;12.00;;;10.80;;
66741;SDS011;53654;54.152;19.432;2023-11-19T04:47:33;12.20;;;11.10;;
66741;SDS011;53654;54.152;19.432;2023-11-19T04:50:02;12.20;;;11.00;;
66741;SDS011;53654;54.152;19.432;2023-11-19T04:52:31;11.80;;;10.70;;
66741;SDS011;53654;54.152;19.432;2023-11-19T04:54:59;11.70;;;10.50;;
66741;SDS011;53654;54.152;19.432;2023-11-19T04:57:27;12.00;;;10.90;;
66741;SDS011;53654;54.152;19.432;2023-11-19T04:59:56;11.70;;;10.50;;
66741;SDS011;53654;54.152;19.432;2023-11-19T05:02:24;12.30;;;11.00;;
66741;SDS011;53654;54.152;19.432;2023-11-19T05:04:52;12.30;;;11.10;;
66741;SDS011;53654;54.152;19.432;2023-11-19T05:07:21;11.60;;;10.50;;
66741;SDS011;53654;54.152;19.432;2023-11-19T05:09:49;12.20;;;11.00;;
66741;SDS011;53654;54.152;19.432;2023-11-19T05:12:17;12.20;;;11.10;;
66741;SDS011;53654;54.152;19.432;2023-11-19T05:14:45;12.70;;;11.50;;
66741;SDS011;53654;54.152;19.432;2023-11-19T05:17:17;12.40;;;11.10;;
66741;SDS011;53654;54.152;19.432;2023-11-19T05:19:46;13.30;;;12.00;;
66741;SDS011;53654;54.152;19.432;2023-11-19T05:22:16;13.50;;;12.10;;
66741;SDS011;53654;54.152;19.432;2023-11-19T05:24:45;13.70;;;12.40;;
66741;SDS011;53654;54.152;19.432;2023-11-19T05:27:13;13.80;;;12.50;;
66741;SDS011;53654;54.152;19.432;2023-11-19T05:29:42;13.10;;;12.00;;
66741;SDS011;53654;54.152;19.432;2023-11-19T05:32:11;12.60;;;11.40;;
66741;SDS011;53654;54.152;19.432;2023-11-19T05:34:39;12.30;;;11.20;;
66741;SDS011;53654;54.152;19.432;2023-11-19T05:37:10;12.20;;;11.10;;
66741;SDS011;53654;54.152;19.432;2023-11-19T05:39:39;12.60;;;11.40;;
66741;SDS011;53654;54.152;19.432;2023-11-19T05:42:07;11.50;;;10.40;;
66741;SDS011;53654;54.152;19.432;2023-11-19T05:44:35;11.10;;;10.10;;
66741;SDS011;53654;54.152;19.432;2023-11-19T05:47:08;11.50;;;10.40;;
66741;SDS011;53654;54.152;19.432;2023-11-19T05:49:36;12.10;;;10.90;;
66741;SDS011;53654;54.152;19.432;2023-11-19T05:52:04;11.00;;;10.00;;
66741;SDS011;53654;54.152;19.432;2023-11-19T05:54:35;10.90;;;9.90;;
66741;SDS011;53654;54.152;19.432;2023-11-19T05:57:06;10.30;;;9.40;;
66741;SDS011;53654;54.152;19.432;2023-11-19T05:59:37;10.40;;;9.40;;
66741;SDS011;53654;54.152;19.432;2023-11-19T06:02:05;10.50;;;9.50;;
66741;SDS011;53654;54.152;19.432;2023-11-19T06:04:34;10.20;;;9.30;;
66741;SDS011;53654;54.152;19.432;2023-11-19T06:07:02;10.20;;;9.20;;
66741;SDS011;53654;54.152;19.432;2023-11-19T06:09:31;10.40;;;9.40;;
66741;SDS011;53654;54.152;19.432;2023-11-19T06:12:01;9.70;;;8.80;;
66741;SDS011;53654;54.152;19.432;2023-11-19T06:14:30;10.10;;;9.10;;
66741;SDS011;53654;54.152;19.432;2023-11-19T06:16:58;9.20;;;8.40;;
66741;SDS011;53654;54.152;19.432;2023-11-19T06:19:27;10.30;;;9.30;;
66741;SDS011;53654;54.152;19.432;2023-11-19T06:21:57;9.60;;;8.70;;
66741;SDS011;53654;54.152;19.432;2023-11-19T06:24:25;9.00;;;8.10;;
66741;SDS011;53654;54.152;19.432;2023-11-19T06:26:54;8.90;;;8.00;;
66741;SDS011;53654;54.152;19.432;2023-11-19T06:29:22;9.20;;;8.30;;
66741;SDS011;53654;54.152;19.432;2023-11-19T06:31:50;9.60;;;8.70;;
66741;SDS011;53654;54.152;19.432;2023-11-19T06:34:19;10.50;;;9.50;;
66741;SDS011;53654;54.152;19.432;2023-11-19T06:36:47;9.30;;;8.50;;
66741;SDS011;53654;54.152;19.432;2023-11-19T06:39:16;9.50;;;8.60;;
66741;SDS011;53654;54.152;19.432;2023-11-19T06:41:45;9.60;;;8.70;;
66741;SDS011;53654;54.152;19.432;2023-11-19T06:44:14;9.80;;;8.80;;
66741;SDS011;53654;54.152;19.432;2023-11-19T06:46:42;9.70;;;8.70;;
66741;SDS011;53654;54.152;19.432;2023-11-19T06:49:10;10.10;;;9.10;;
66741;SDS011;53654;54.152;19.432;2023-11-19T06:51:42;11.00;;;9.90;;
66741;SDS011;53654;54.152;19.432;2023-11-19T06:54:10;11.20;;;10.10;;
66741;SDS011;53654;54.152;19.432;2023-11-19T06:56:38;11.30;;;10.20;;
66741;SDS011;53654;54.152;19.432;2023-11-19T06:59:07;11.90;;;10.80;;
66741;SDS011;53654;54.152;19.432;2023-11-19T07:01:36;11.30;;;10.20;;
66741;SDS011;53654;54.152;19.432;2023-11-19T07:04:05;11.80;;;10.70;;
66741;SDS011;53654;54.152;19.432;2023-11-19T07:06:36;11.80;;;10.70;;
66741;SDS011;53654;54.152;19.432;2023-11-19T07:09:04;12.50;;;11.20;;
66741;SDS011;53654;54.152;19.432;2023-11-19T07:11:38;12.80;;;11.60;;
66741;SDS011;53654;54.152;19.432;2023-11-19T07:14:08;12.90;;;11.70;;
66741;SDS011;53654;54.152;19.432;2023-11-19T07:16:36;12.90;;;11.70;;
66741;SDS011;53654;54.152;19.432;2023-11-19T07:19:06;14.00;;;12.70;;
66741;SDS011;53654;54.152;19.432;2023-11-19T07:21:35;14.20;;;12.80;;
66741;SDS011;53654;54.152;19.432;2023-11-19T07:24:07;14.00;;;12.70;;
66741;SDS011;53654;54.152;19.432;2023-11-19T07:26:35;13.60;;;12.30;;
66741;SDS011;53654;54.152;19.432;2023-11-19T07:29:05;14.30;;;12.80;;
66741;SDS011;53654;54.152;19.432;2023-11-19T07:31:35;14.30;;;12.90;;
66741;SDS011;53654;54.152;19.432;2023-11-19T07:34:04;13.90;;;12.60;;
66741;SDS011;53654;54.152;19.432;2023-11-19T07:36:34;13.90;;;12.60;;
66741;SDS011;53654;54.152;19.432;2023-11-19T07:39:04;14.60;;;13.10;;
66741;SDS011;53654;54.152;19.432;2023-11-19T07:41:32;15.40;;;13.90;;
66741;SDS011;53654;54.152;19.432;2023-11-19T07:44:03;15.60;;;14.10;;
66741;SDS011;53654;54.152;19.432;2023-11-19T07:46:32;15.10;;;13.60;;
66741;SDS011;53654;54.152;19.432;2023-11-19T07:49:00;15.90;;;14.30;;
66741;SDS011;53654;54.152;19.432;2023-11-19T07:51:30;15.90;;;14.40;;
66741;SDS011;53654;54.152;19.432;2023-11-19T07:53:58;15.30;;;13.80;;
66741;SDS011;53654;54.152;19.432;2023-11-19T07:56:27;16.50;;;14.90;;
66741;SDS011;53654;54.152;19.432;2023-11-19T07:58:55;18.10;;;16.40;;
66741;SDS011;53654;54.152;19.432;2023-11-19T08:01:23;18.90;;;17.00;;
66741;SDS011;53654;54.152;19.432;2023-11-19T08:03:51;17.80;;;16.10;;
66741;SDS011;53654;54.152;19.432;2023-11-19T08:06:22;18.50;;;16.60;;
66741;SDS011;53654;54.152;19.432;2023-11-19T08:08:50;18.20;;;16.40;;
66741;SDS011;53654;54.152;19.432;2023-11-19T08:11:20;18.20;;;16.30;;
66741;SDS011;53654;54.152;19.432;2023-11-19T08:13:48;18.10;;;16.20;;
66741;SDS011;53654;54.152;19.432;2023-11-19T08:16:16;19.00;;;17.20;;
66741;SDS011;53654;54.152;19.432;2023-11-19T08:18:44;19.20;;;17.30;;
66741;SDS011;53654;54.152;19.432;2023-11-19T08:21:13;18.50;;;16.80;;
66741;SDS011;53654;54.152;19.432;2023-11-19T08:23:41;19.00;;;17.10;;
66741;SDS011;53654;54.152;19.432;2023-11-19T08:26:09;19.60;;;17.60;;
66741;SDS011;53654;54.152;19.432;2023-11-19T08:28:37;19.10;;;17.20;;
66741;SDS011;53654;54.152;19.432;2023-11-19T08:31:06;20.00;;;18.00;;
66741;SDS011;53654;54.152;19.432;2023-11-19T08:33:34;19.00;;;17.10;;
66741;SDS011;53654;54.152;19.432;2023-11-19T08:36:03;19.50;;;17.60;;
66741;SDS011;53654;54.152;19.432;2023-11-19T08:38:32;19.50;;;17.50;;
66741;SDS011;53654;54.152;19.432;2023-11-19T08:41:00;19.30;;;17.50;;
66741;SDS011;53654;54.152;19.432;2023-11-19T08:43:28;19.70;;;17.80;;
66741;SDS011;53654;54.152;19.432;2023-11-19T08:45:57;20.10;;;18.20;;
66741;SDS011;53654;54.152;19.432;2023-11-19T08:48:25;22.00;;;19.80;;
66741;SDS011;53654;54.152;19.432;2023-11-19T08:50:53;22.40;;;20.10;;
66741;SDS011;53654;54.152;19.432;2023-11-19T08:53:22;22.40;;;20.20;;
66741;SDS011;53654;54.152;19.432;2023-11-19T08:55:50;23.10;;;20.70;;
66741;SDS011;53654;54.152;19.432;2023-11-19T08:58:18;21.80;;;19.50;;
66741;SDS011;53654;54.152;19.432;2023-11-19T09:00:46;23.00;;;20.70;;
66741;SDS011;53654;54.152;19.432;2023-11-19T09:03:14;24.70;;;22.20;;
66741;SDS011;53654;54.152;19.432;2023-11-19T09:05:43;23.70;;;20.40;;
66741;SDS011;53654;54.152;19.432;2023-11-19T09:08:11;24.00;;;21.50;;
66741;SDS011;53654;54.152;19.432;2023-11-19T09:10:40;25.30;;;22.70;;
66741;SDS011;53654;54.152;19.432;2023-11-19T09:13:08;24.60;;;22.10;;
66741;SDS011;53654;54.152;19.432;2023-11-19T09:15:36;23.60;;;21.10;;
66741;SDS011;53654;54.152;19.432;2023-11-19T09:18:05;25.60;;;22.90;;
66741;SDS011;53654;54.152;19.432;2023-11-19T09:20:33;24.30;;;21.80;;
66741;SDS011;53654;54.152;19.432;2023-11-19T09:23:07;23.10;;;20.70;;
66741;SDS011;53654;54.152;19.432;2023-11-19T09:25:37;23.60;;;21.10;;
66741;SDS011;53654;54.152;19.432;2023-11-19T09:28:08;24.00;;;21.60;;
66741;SDS011;53654;54.152;19.432;2023-11-19T09:30:36;23.40;;;21.00;;
66741;SDS011;53654;54.152;19.432;2023-11-19T09:33:05;24.30;;;21.90;;
66741;SDS011;53654;54.152;19.432;2023-11-19T09:35:33;24.30;;;21.70;;
66741;SDS011;53654;54.152;19.432;2023-11-19T09:38:01;24.10;;;21.70;;
66741;SDS011;53654;54.152;19.432;2023-11-19T09:40:32;24.70;;;22.20;;
66741;SDS011;53654;54.152;19.432;2023-11-19T09:43:00;25.30;;;22.70;;
66741;SDS011;53654;54.152;19.432;2023-11-19T09:45:29;30.70;;;27.50;;
66741;SDS011;53654;54.152;19.432;2023-11-19T09:48:10;28.20;;;25.20;;
66741;SDS011;53654;54.152;19.432;2023-11-19T09:50:40;23.60;;;21.30;;
66741;SDS011;53654;54.152;19.432;2023-11-19T09:53:09;23.20;;;20.90;;
66741;SDS011;53654;54.152;19.432;2023-11-19T09:55:37;24.20;;;21.60;;
66741;SDS011;53654;54.152;19.432;2023-11-19T09:58:05;23.60;;;21.20;;
66741;SDS011;53654;54.152;19.432;2023-11-19T10:00:34;25.80;;;23.20;;
66741;SDS011;53654;54.152;19.432;2023-11-19T10:03:03;25.00;;;22.50;;
66741;SDS011;53654;54.152;19.432;2023-11-19T10:05:33;24.60;;;22.00;;
66741;SDS011;53654;54.152;19.432;2023-11-19T10:08:01;23.90;;;21.50;;
66741;SDS011;53654;54.152;19.432;2023-11-19T10:10:30;38.50;;;32.90;;
66741;SDS011;53654;54.152;19.432;2023-11-19T10:12:59;24.80;;;22.20;;
66741;SDS011;53654;54.152;19.432;2023-11-19T10:15:28;25.80;;;23.20;;
66741;SDS011;53654;54.152;19.432;2023-11-19T10:18:04;26.30;;;23.60;;
66741;SDS011;53654;54.152;19.432;2023-11-19T10:20:36;25.10;;;22.60;;
66741;SDS011;53654;54.152;19.432;2023-11-19T10:23:04;24.10;;;21.70;;
66741;SDS011;53654;54.152;19.432;2023-11-19T10:25:33;24.50;;;22.00;;
66741;SDS011;53654;54.152;19.432;2023-11-19T10:28:01;25.50;;;22.80;;
66741;SDS011;53654;54.152;19.432;2023-11-19T10:30:31;25.30;;;22.70;;
66741;SDS011;53654;54.152;19.432;2023-11-19T10:33:05;23.70;;;21.30;;
66741;SDS011;53654;54.152;19.432;2023-11-19T10:35:36;23.90;;;21.50;;
66741;SDS011;53654;54.152;19.432;2023-11-19T10:38:23;25.90;;;23.20;;
66741;SDS011;53654;54.152;19.432;2023-11-19T10:40:53;28.40;;;25.50;;
66741;SDS011;53654;54.152;19.432;2023-11-19T10:43:23;28.10;;;25.20;;
66741;SDS011;53654;54.152;19.432;2023-11-19T10:45:51;24.90;;;22.30;;
66741;SDS011;53654;54.152;19.432;2023-11-19T10:48:20;26.20;;;23.50;;
66741;SDS011;53654;54.152;19.432;2023-11-19T10:50:49;25.20;;;22.70;;
66741;SDS011;53654;54.152;19.432;2023-11-19T10:53:22;25.50;;;22.70;;
66741;SDS011;53654;54.152;19.432;2023-11-19T10:55:53;26.60;;;23.80;;
66741;SDS011;53654;54.152;19.432;2023-11-19T10:58:26;27.50;;;24.70;;
66741;SDS011;53654;54.152;19.432;2023-11-19T11:01:01;26.40;;;23.70;;
66741;SDS011;53654;54.152;19.432;2023-11-19T11:03:39;25.70;;;22.90;;
66741;SDS011;53654;54.152;19.432;2023-11-19T11:06:08;26.40;;;23.60;;
66741;SDS011;53654;54.152;19.432;2023-11-19T11:08:37;27.60;;;24.60;;
66741;SDS011;53654;54.152;19.432;2023-11-19T11:11:07;27.80;;;24.80;;
66741;SDS011;53654;54.152;19.432;2023-11-19T11:13:36;28.00;;;25.00;;
66741;SDS011;53654;54.152;19.432;2023-11-19T11:16:09;29.70;;;25.90;;
66741;SDS011;53654;54.152;19.432;2023-11-19T11:18:39;29.50;;;26.40;;
66741;SDS011;53654;54.152;19.432;2023-11-19T11:21:10;28.40;;;25.30;;
66741;SDS011;53654;54.152;19.432;2023-11-19T11:35:40;26.30;;;23.50;;
66741;SDS011;53654;54.152;19.432;2023-11-19T11:38:00;25.50;;;22.80;;
66741;SDS011;53654;54.152;19.432;2023-11-19T11:40:34;26.50;;;23.60;;
66741;SDS011;53654;54.152;19.432;2023-11-19T11:43:04;29.20;;;26.00;;
66741;SDS011;53654;54.152;19.432;2023-11-19T11:45:37;28.80;;;25.70;;
66741;SDS011;53654;54.152;19.432;2023-11-19T11:48:08;28.10;;;25.10;;
66741;SDS011;53654;54.152;19.432;2023-11-19T11:50:52;27.90;;;24.90;;
66741;SDS011;53654;54.152;19.432;2023-11-19T11:53:22;27.60;;;24.70;;
66741;SDS011;53654;54.152;19.432;2023-11-19T11:55:53;27.50;;;24.50;;
66741;SDS011;53654;54.152;19.432;2023-11-19T11:58:29;29.20;;;25.90;;
66741;SDS011;53654;54.152;19.432;2023-11-19T12:00:59;29.90;;;26.30;;
66741;SDS011;53654;54.152;19.432;2023-11-19T12:03:30;29.60;;;26.40;;
66741;SDS011;53654;54.152;19.432;2023-11-19T12:06:00;29.60;;;26.30;;
66741;SDS011;53654;54.152;19.432;2023-11-19T12:08:28;30.60;;;27.20;;
66741;SDS011;53654;54.152;19.432;2023-11-19T12:10:58;27.80;;;24.80;;
66741;SDS011;53654;54.152;19.432;2023-11-19T12:13:46;29.20;;;25.50;;
66741;SDS011;53654;54.152;19.432;2023-11-19T12:16:20;28.60;;;25.50;;
66741;SDS011;53654;54.152;19.432;2023-11-19T12:18:49;30.10;;;26.00;;
66741;SDS011;53654;54.152;19.432;2023-11-19T12:21:27;29.90;;;26.50;;
66741;SDS011;53654;54.152;19.432;2023-11-19T12:23:58;29.90;;;26.70;;
66741;SDS011;53654;54.152;19.432;2023-11-19T12:26:33;30.30;;;26.00;;
66741;SDS011;53654;54.152;19.432;2023-11-19T12:29:02;30.50;;;26.10;;
66741;SDS011;53654;54.152;19.432;2023-11-19T12:31:36;29.70;;;26.20;;
66741;SDS011;53654;54.152;19.432;2023-11-19T12:34:05;31.30;;;26.60;;
66741;SDS011;53654;54.152;19.432;2023-11-19T12:36:34;31.70;;;27.90;;
66741;SDS011;53654;54.152;19.432;2023-11-19T12:39:03;29.60;;;26.10;;
66741;SDS011;53654;54.152;19.432;2023-11-19T12:41:31;30.20;;;26.50;;
66741;SDS011;53654;54.152;19.432;2023-11-19T12:44:20;30.40;;;26.00;;
66741;SDS011;53654;54.152;19.432;2023-11-19T12:46:58;29.60;;;26.00;;
66741;SDS011;53654;54.152;19.432;2023-11-19T12:49:35;30.60;;;26.50;;
66741;SDS011;53654;54.152;19.432;2023-11-19T12:52:11;32.20;;;26.80;;
66741;SDS011;53654;54.152;19.432;2023-11-19T12:54:40;31.70;;;27.80;;
66741;SDS011;53654;54.152;19.432;2023-11-19T12:57:08;32.00;;;27.40;;
66741;SDS011;53654;54.152;19.432;2023-11-19T12:59:36;30.70;;;26.50;;
66741;SDS011;53654;54.152;19.432;2023-11-19T13:02:05;30.40;;;26.00;;
66741;SDS011;53654;54.152;19.432;2023-11-19T13:04:34;33.20;;;26.50;;
66741;SDS011;53654;54.152;19.432;2023-11-19T13:07:03;30.20;;;26.70;;
66741;SDS011;53654;54.152;19.432;2023-11-19T13:09:33;32.50;;;26.70;;
66741;SDS011;53654;54.152;19.432;2023-11-19T13:12:11;32.60;;;27.70;;
66741;SDS011;53654;54.152;19.432;2023-11-19T13:14:42;33.50;;;28.60;;
66741;SDS011;53654;54.152;19.432;2023-11-19T13:17:12;32.40;;;28.30;;
66741;SDS011;53654;54.152;19.432;2023-11-19T13:19:42;31.70;;;26.70;;
66741;SDS011;53654;54.152;19.432;2023-11-19T13:22:10;29.60;;;26.40;;
66741;SDS011;53654;54.152;19.432;2023-11-19T13:24:38;29.00;;;25.30;;
66741;SDS011;53654;54.152;19.432;2023-11-19T13:27:08;28.40;;;25.10;;
66741;SDS011;53654;54.152;19.432;2023-11-19T13:29:36;28.30;;;24.40;;
66741;SDS011;53654;54.152;19.432;2023-11-19T13:32:04;29.30;;;25.20;;
66741;SDS011;53654;54.152;19.432;2023-11-19T13:34:33;25.70;;;22.70;;
66741;SDS011;53654;54.152;19.432;2023-11-19T13:37:01;27.80;;;24.40;;
66741;SDS011;53654;54.152;19.432;2023-11-19T13:39:30;28.80;;;24.90;;
66741;SDS011;53654;54.152;19.432;2023-11-19T13:41:59;29.30;;;24.80;;
66741;SDS011;53654;54.152;19.432;2023-11-19T13:44:30;30.90;;;25.80;;
66741;SDS011;53654;54.152;19.432;2023-11-19T13:46:58;30.80;;;26.90;;
66741;SDS011;53654;54.152;19.432;2023-11-19T13:49:26;30.70;;;27.10;;
66741;SDS011;53654;54.152;19.432;2023-11-19T13:51:56;27.90;;;24.50;;
66741;SDS011;53654;54.152;19.432;2023-11-19T13:54:24;31.00;;;26.50;;
66741;SDS011;53654;54.152;19.432;2023-11-19T13:56:54;33.10;;;27.90;;
66741;SDS011;53654;54.152;19.432;2023-11-19T13:59:25;33.50;;;28.50;;
66741;SDS011;53654;54.152;19.432;2023-11-19T14:01:53;34.00;;;27.60;;
66741;SDS011;53654;54.152;19.432;2023-11-19T14:04:21;34.70;;;27.80;;
66741;SDS011;53654;54.152;19.432;2023-11-19T14:06:50;31.10;;;26.60;;
66741;SDS011;53654;54.152;19.432;2023-11-19T14:09:18;29.40;;;26.00;;
66741;SDS011;53654;54.152;19.432;2023-11-19T14:11:47;33.40;;;27.80;;
66741;SDS011;53654;54.152;19.432;2023-11-19T14:14:16;33.00;;;27.00;;
66741;SDS011;53654;54.152;19.432;2023-11-19T14:16:44;30.90;;;26.00;;
66741;SDS011;53654;54.152;19.432;2023-11-19T14:19:13;30.50;;;25.60;;
66741;SDS011;53654;54.152;19.432;2023-11-19T14:21:42;30.80;;;26.10;;
66741;SDS011;53654;54.152;19.432;2023-11-19T14:24:12;30.00;;;26.10;;
66741;SDS011;53654;54.152;19.432;2023-11-19T14:26:41;31.10;;;25.10;;
66741;SDS011;53654;54.152;19.432;2023-11-19T14:29:09;29.50;;;25.80;;
66741;SDS011;53654;54.152;19.432;2023-11-19T14:31:37;35.00;;;29.60;;
66741;SDS011;53654;54.152;19.432;2023-11-19T14:34:05;34.10;;;28.70;;
66741;SDS011;53654;54.152;19.432;2023-11-19T14:36:34;33.00;;;28.40;;
66741;SDS011;53654;54.152;19.432;2023-11-19T14:39:02;32.50;;;27.60;;